sensor_id;sensor_type;location;lat;lon;timestamp;P1;durP1;ratioP1;P2;durP2;ratioP2
16510;SDS011;8368;48.772;8.754;2022-08-01T00:01:37;2.90;;;2.67;;
16510;SDS011;8368;48.772;8.754;2022-08-01T00:04:03;2.75;;;2.55;;
16510;SDS011;8368;48.772;8.754;2022-08-01T00:06:29;3.15;;;2.83;;
16510;SDS011;8368;48.772;8.754;2022-08-01T00:08:55;2.97;;;2.58;;
16510;SDS011;8368;48.772;8.754;2022-08-01T00:11:21;2.60;;;2.40;;
16510;SDS011;8368;48.772;8.754;2022-08-01T00:13:46;2.30;;;2.20;;
16510;SDS011;8368;48.772;8.754;2022-08-01T00:16:12;2.55;;;2.40;;
16510;SDS011;8368;48.772;8.754;2022-08-01T00:18:38;2.60;;;2.40;;
16510;SDS011;8368;48.772;8.754;2022-08-01T00:21:04;2.42;;;2.28;;
16510;SDS011;8368;48.772;8.754;2022-08-01T00:23:30;2.70;;;2.60;;
16510;SDS011;8368;48.772;8.754;2022-08-01T00:25:56;2.33;;;2.22;;
16510;SDS011;8368;48.772;8.754;2022-08-01T00:28:22;2.67;;;2.58;;
16510;SDS011;8368;48.772;8.754;2022-08-01T00:30:47;3.40;;;2.42;;
16510;SDS011;8368;48.772;8.754;2022-08-01T00:33:14;3.10;;;2.88;;
16510;SDS011;8368;48.772;8.754;2022-08-01T00:35:39;2.78;;;2.67;;
16510;SDS011;8368;48.772;8.754;2022-08-01T00:38:05;2.35;;;2.25;;
16510;SDS011;8368;48.772;8.754;2022-08-01T00:40:30;3.08;;;2.63;;
16510;SDS011;8368;48.772;8.754;2022-08-01T00:42:56;2.97;;;2.55;;
16510;SDS011;8368;48.772;8.754;2022-08-01T00:45:22;4.28;;;2.95;;
16510;SDS011;8368;48.772;8.754;2022-08-01T00:47:47;3.38;;;3.00;;
16510;SDS011;8368;48.772;8.754;2022-08-01T00:50:13;2.75;;;2.45;;
16510;SDS011;8368;48.772;8.754;2022-08-01T00:52:39;2.60;;;2.50;;
16510;SDS011;8368;48.772;8.754;2022-08-01T00:55:06;3.03;;;2.65;;
16510;SDS011;8368;48.772;8.754;2022-08-01T00:57:32;3.13;;;2.65;;
16510;SDS011;8368;48.772;8.754;2022-08-01T00:59:58;7.82;;;2.70;;
16510;SDS011;8368;48.772;8.754;2022-08-01T01:02:24;5.43;;;2.78;;
16510;SDS011;8368;48.772;8.754;2022-08-01T01:04:50;2.50;;;2.40;;
16510;SDS011;8368;48.772;8.754;2022-08-01T01:07:17;3.22;;;3.00;;
16510;SDS011;8368;48.772;8.754;2022-08-01T01:10:04;2.90;;;2.70;;
16510;SDS011;8368;48.772;8.754;2022-08-01T01:12:38;2.88;;;2.70;;
16510;SDS011;8368;48.772;8.754;2022-08-01T01:18:04;4.53;;;2.80;;
16510;SDS011;8368;48.772;8.754;2022-08-01T01:20:37;3.38;;;3.15;;
16510;SDS011;8368;48.772;8.754;2022-08-01T01:30:40;2.72;;;2.42;;
16510;SDS011;8368;48.772;8.754;2022-08-01T01:33:08;3.20;;;3.10;;
16510;SDS011;8368;48.772;8.754;2022-08-01T01:35:36;3.47;;;3.20;;
16510;SDS011;8368;48.772;8.754;2022-08-01T01:38:28;3.28;;;3.10;;
16510;SDS011;8368;48.772;8.754;2022-08-01T01:40:57;3.05;;;2.90;;
16510;SDS011;8368;48.772;8.754;2022-08-01T01:43:23;3.13;;;2.83;;
16510;SDS011;8368;48.772;8.754;2022-08-01T01:45:51;3.38;;;3.03;;
16510;SDS011;8368;48.772;8.754;2022-08-01T01:48:19;3.50;;;3.33;;
16510;SDS011;8368;48.772;8.754;2022-08-01T01:50:48;3.05;;;2.92;;
16510;SDS011;8368;48.772;8.754;2022-08-01T01:53:16;3.13;;;2.92;;
16510;SDS011;8368;48.772;8.754;2022-08-01T01:55:45;3.35;;;3.10;;
16510;SDS011;8368;48.772;8.754;2022-08-01T01:58:13;3.53;;;3.20;;
16510;SDS011;8368;48.772;8.754;2022-08-01T02:00:41;4.97;;;3.35;;
16510;SDS011;8368;48.772;8.754;2022-08-01T02:03:09;3.03;;;2.92;;
16510;SDS011;8368;48.772;8.754;2022-08-01T02:05:36;5.25;;;3.25;;
16510;SDS011;8368;48.772;8.754;2022-08-01T02:08:03;3.60;;;3.30;;
16510;SDS011;8368;48.772;8.754;2022-08-01T02:10:30;3.80;;;3.50;;
16510;SDS011;8368;48.772;8.754;2022-08-01T02:12:57;3.63;;;3.33;;
16510;SDS011;8368;48.772;8.754;2022-08-01T02:15:24;3.15;;;3.05;;
16510;SDS011;8368;48.772;8.754;2022-08-01T02:17:53;3.65;;;3.30;;
16510;SDS011;8368;48.772;8.754;2022-08-01T02:20:19;3.40;;;3.10;;
16510;SDS011;8368;48.772;8.754;2022-08-01T02:22:50;3.78;;;3.58;;
16510;SDS011;8368;48.772;8.754;2022-08-01T02:25:20;3.35;;;3.15;;
16510;SDS011;8368;48.772;8.754;2022-08-01T02:27:51;3.40;;;3.20;;
16510;SDS011;8368;48.772;8.754;2022-08-01T02:30:31;3.05;;;2.90;;
16510;SDS011;8368;48.772;8.754;2022-08-01T02:33:05;3.45;;;3.13;;
16510;SDS011;8368;48.772;8.754;2022-08-01T02:35:48;3.20;;;3.10;;
16510;SDS011;8368;48.772;8.754;2022-08-01T02:38:17;3.20;;;3.00;;
16510;SDS011;8368;48.772;8.754;2022-08-01T02:40:46;3.70;;;3.50;;
16510;SDS011;8368;48.772;8.754;2022-08-01T02:43:14;3.40;;;3.30;;
16510;SDS011;8368;48.772;8.754;2022-08-01T02:45:43;4.13;;;3.50;;
16510;SDS011;8368;48.772;8.754;2022-08-01T02:48:13;3.40;;;3.30;;
16510;SDS011;8368;48.772;8.754;2022-08-01T02:50:42;3.45;;;3.22;;
16510;SDS011;8368;48.772;8.754;2022-08-01T02:53:10;3.85;;;3.65;;
16510;SDS011;8368;48.772;8.754;2022-08-01T02:55:38;3.53;;;3.33;;
16510;SDS011;8368;48.772;8.754;2022-08-01T02:58:06;3.97;;;3.50;;
16510;SDS011;8368;48.772;8.754;2022-08-01T03:00:33;4.65;;;3.35;;
16510;SDS011;8368;48.772;8.754;2022-08-01T03:02:59;4.07;;;3.67;;
16510;SDS011;8368;48.772;8.754;2022-08-01T03:05:27;3.47;;;3.22;;
16510;SDS011;8368;48.772;8.754;2022-08-01T03:07:54;3.78;;;3.47;;
16510;SDS011;8368;48.772;8.754;2022-08-01T03:10:20;4.53;;;3.22;;
16510;SDS011;8368;48.772;8.754;2022-08-01T03:12:47;3.72;;;3.45;;
16510;SDS011;8368;48.772;8.754;2022-08-01T03:15:15;4.30;;;3.88;;
16510;SDS011;8368;48.772;8.754;2022-08-01T03:17:43;4.22;;;3.85;;
16510;SDS011;8368;48.772;8.754;2022-08-01T03:20:10;3.38;;;3.28;;
16510;SDS011;8368;48.772;8.754;2022-08-01T03:22:38;5.20;;;4.20;;
16510;SDS011;8368;48.772;8.754;2022-08-01T03:25:05;4.05;;;3.45;;
16510;SDS011;8368;48.772;8.754;2022-08-01T03:27:32;3.58;;;3.28;;
16510;SDS011;8368;48.772;8.754;2022-08-01T03:29:59;4.10;;;3.53;;
16510;SDS011;8368;48.772;8.754;2022-08-01T03:32:28;3.63;;;3.42;;
16510;SDS011;8368;48.772;8.754;2022-08-01T03:34:55;3.67;;;3.38;;
16510;SDS011;8368;48.772;8.754;2022-08-01T03:37:26;4.03;;;3.72;;
16510;SDS011;8368;48.772;8.754;2022-08-01T03:40:10;3.70;;;3.50;;
16510;SDS011;8368;48.772;8.754;2022-08-01T03:42:46;3.95;;;3.65;;
16510;SDS011;8368;48.772;8.754;2022-08-01T03:45:27;3.67;;;3.38;;
16510;SDS011;8368;48.772;8.754;2022-08-01T03:48:06;3.90;;;3.70;;
16510;SDS011;8368;48.772;8.754;2022-08-01T03:50:35;3.42;;;3.17;;
16510;SDS011;8368;48.772;8.754;2022-08-01T03:53:04;4.13;;;3.85;;
16510;SDS011;8368;48.772;8.754;2022-08-01T03:55:32;3.63;;;3.38;;
16510;SDS011;8368;48.772;8.754;2022-08-01T03:57:59;4.28;;;3.88;;
16510;SDS011;8368;48.772;8.754;2022-08-01T04:00:26;4.03;;;3.67;;
16510;SDS011;8368;48.772;8.754;2022-08-01T04:02:52;4.07;;;3.88;;
16510;SDS011;8368;48.772;8.754;2022-08-01T04:05:18;3.45;;;3.33;;
16510;SDS011;8368;48.772;8.754;2022-08-01T04:07:48;3.67;;;3.47;;
16510;SDS011;8368;48.772;8.754;2022-08-01T04:10:20;4.05;;;3.70;;
16510;SDS011;8368;48.772;8.754;2022-08-01T04:12:49;4.25;;;3.67;;
16510;SDS011;8368;48.772;8.754;2022-08-01T04:15:14;3.65;;;3.45;;
16510;SDS011;8368;48.772;8.754;2022-08-01T04:17:40;3.50;;;3.30;;
16510;SDS011;8368;48.772;8.754;2022-08-01T04:20:06;3.90;;;3.65;;
16510;SDS011;8368;48.772;8.754;2022-08-01T04:22:31;3.95;;;3.75;;
16510;SDS011;8368;48.772;8.754;2022-08-01T04:24:58;3.53;;;3.33;;
16510;SDS011;8368;48.772;8.754;2022-08-01T04:27:28;3.95;;;3.75;;
16510;SDS011;8368;48.772;8.754;2022-08-01T04:29:56;3.17;;;3.08;;
16510;SDS011;8368;48.772;8.754;2022-08-01T04:32:25;3.90;;;3.60;;
16510;SDS011;8368;48.772;8.754;2022-08-01T04:34:55;3.30;;;3.00;;
16510;SDS011;8368;48.772;8.754;2022-08-01T04:37:24;3.65;;;3.55;;
16510;SDS011;8368;48.772;8.754;2022-08-01T04:39:51;4.00;;;3.70;;
16510;SDS011;8368;48.772;8.754;2022-08-01T04:42:19;3.75;;;3.55;;
16510;SDS011;8368;48.772;8.754;2022-08-01T04:44:45;3.40;;;3.15;;
16510;SDS011;8368;48.772;8.754;2022-08-01T04:47:10;3.30;;;3.10;;
16510;SDS011;8368;48.772;8.754;2022-08-01T04:49:37;3.42;;;3.13;;
16510;SDS011;8368;48.772;8.754;2022-08-01T04:52:03;2.97;;;2.85;;
16510;SDS011;8368;48.772;8.754;2022-08-01T04:54:31;3.25;;;3.15;;
16510;SDS011;8368;48.772;8.754;2022-08-01T04:56:59;3.38;;;2.97;;
16510;SDS011;8368;48.772;8.754;2022-08-01T04:59:26;2.72;;;2.63;;
16510;SDS011;8368;48.772;8.754;2022-08-01T05:02:04;3.03;;;2.83;;
16510;SDS011;8368;48.772;8.754;2022-08-01T05:04:30;2.97;;;2.88;;
16510;SDS011;8368;48.772;8.754;2022-08-01T05:06:56;2.53;;;2.42;;
16510;SDS011;8368;48.772;8.754;2022-08-01T05:09:22;2.70;;;2.60;;
16510;SDS011;8368;48.772;8.754;2022-08-01T05:11:47;3.03;;;2.90;;
16510;SDS011;8368;48.772;8.754;2022-08-01T05:14:13;3.08;;;2.83;;
16510;SDS011;8368;48.772;8.754;2022-08-01T05:16:38;2.95;;;2.75;;
16510;SDS011;8368;48.772;8.754;2022-08-01T05:19:04;2.65;;;2.55;;
16510;SDS011;8368;48.772;8.754;2022-08-01T05:21:29;2.80;;;2.60;;
16510;SDS011;8368;48.772;8.754;2022-08-01T05:23:55;2.95;;;2.80;;
16510;SDS011;8368;48.772;8.754;2022-08-01T05:26:21;2.78;;;2.58;;
16510;SDS011;8368;48.772;8.754;2022-08-01T05:28:47;2.83;;;2.63;;
16510;SDS011;8368;48.772;8.754;2022-08-01T05:31:13;3.03;;;2.80;;
16510;SDS011;8368;48.772;8.754;2022-08-01T05:33:38;2.63;;;2.53;;
16510;SDS011;8368;48.772;8.754;2022-08-01T05:36:04;2.55;;;2.45;;
16510;SDS011;8368;48.772;8.754;2022-08-01T05:38:30;2.67;;;2.58;;
16510;SDS011;8368;48.772;8.754;2022-08-01T05:40:55;2.75;;;2.30;;
16510;SDS011;8368;48.772;8.754;2022-08-01T05:43:21;2.33;;;2.22;;
16510;SDS011;8368;48.772;8.754;2022-08-01T05:45:46;2.47;;;2.28;;
16510;SDS011;8368;48.772;8.754;2022-08-01T05:48:12;2.50;;;2.30;;
16510;SDS011;8368;48.772;8.754;2022-08-01T05:50:38;2.47;;;2.30;;
16510;SDS011;8368;48.772;8.754;2022-08-01T05:53:03;2.38;;;2.00;;
16510;SDS011;8368;48.772;8.754;2022-08-01T05:55:29;2.45;;;2.25;;
16510;SDS011;8368;48.772;8.754;2022-08-01T05:57:54;2.30;;;2.20;;
16510;SDS011;8368;48.772;8.754;2022-08-01T06:00:20;2.88;;;2.00;;
16510;SDS011;8368;48.772;8.754;2022-08-01T06:02:46;2.00;;;2.00;;
16510;SDS011;8368;48.772;8.754;2022-08-01T06:05:11;2.85;;;2.03;;
16510;SDS011;8368;48.772;8.754;2022-08-01T06:07:37;2.15;;;2.00;;
16510;SDS011;8368;48.772;8.754;2022-08-01T06:10:03;2.40;;;2.20;;
16510;SDS011;8368;48.772;8.754;2022-08-01T06:12:32;2.33;;;1.95;;
16510;SDS011;8368;48.772;8.754;2022-08-01T06:14:58;2.85;;;2.28;;
16510;SDS011;8368;48.772;8.754;2022-08-01T06:17:23;1.95;;;1.88;;
16510;SDS011;8368;48.772;8.754;2022-08-01T06:19:49;2.13;;;2.03;;
16510;SDS011;8368;48.772;8.754;2022-08-01T06:22:14;4.18;;;2.00;;
16510;SDS011;8368;48.772;8.754;2022-08-01T06:24:40;2.20;;;1.95;;
16510;SDS011;8368;48.772;8.754;2022-08-01T06:27:06;2.00;;;1.90;;
16510;SDS011;8368;48.772;8.754;2022-08-01T06:29:31;1.63;;;1.63;;
16510;SDS011;8368;48.772;8.754;2022-08-01T06:31:57;2.00;;;1.80;;
16510;SDS011;8368;48.772;8.754;2022-08-01T06:34:23;1.80;;;1.80;;
16510;SDS011;8368;48.772;8.754;2022-08-01T06:36:48;2.05;;;1.85;;
16510;SDS011;8368;48.772;8.754;2022-08-01T06:39:14;2.35;;;2.25;;
16510;SDS011;8368;48.772;8.754;2022-08-01T06:41:39;1.73;;;1.63;;
16510;SDS011;8368;48.772;8.754;2022-08-01T06:44:06;3.42;;;1.90;;
16510;SDS011;8368;48.772;8.754;2022-08-01T06:46:32;2.45;;;2.30;;
16510;SDS011;8368;48.772;8.754;2022-08-01T06:48:59;1.90;;;1.90;;
16510;SDS011;8368;48.772;8.754;2022-08-01T06:51:25;2.05;;;1.95;;
16510;SDS011;8368;48.772;8.754;2022-08-01T06:53:50;2.10;;;2.10;;
16510;SDS011;8368;48.772;8.754;2022-08-01T06:56:16;2.13;;;2.03;;
16510;SDS011;8368;48.772;8.754;2022-08-01T06:58:42;2.20;;;1.80;;
16510;SDS011;8368;48.772;8.754;2022-08-01T07:01:07;4.50;;;1.80;;
16510;SDS011;8368;48.772;8.754;2022-08-01T07:03:33;2.25;;;2.10;;
16510;SDS011;8368;48.772;8.754;2022-08-01T07:05:59;1.95;;;1.85;;
16510;SDS011;8368;48.772;8.754;2022-08-01T07:08:24;2.03;;;2.03;;
16510;SDS011;8368;48.772;8.754;2022-08-01T07:10:50;2.10;;;2.00;;
16510;SDS011;8368;48.772;8.754;2022-08-01T07:13:16;2.22;;;2.05;;
16510;SDS011;8368;48.772;8.754;2022-08-01T07:15:45;2.92;;;1.88;;
16510;SDS011;8368;48.772;8.754;2022-08-01T07:18:11;2.10;;;2.00;;
16510;SDS011;8368;48.772;8.754;2022-08-01T07:20:37;2.60;;;2.40;;
16510;SDS011;8368;48.772;8.754;2022-08-01T07:23:03;5.28;;;2.13;;
16510;SDS011;8368;48.772;8.754;2022-08-01T07:25:28;4.13;;;2.25;;
16510;SDS011;8368;48.772;8.754;2022-08-01T07:27:54;1.98;;;1.90;;
16510;SDS011;8368;48.772;8.754;2022-08-01T07:30:20;1.95;;;1.95;;
16510;SDS011;8368;48.772;8.754;2022-08-01T07:32:45;1.80;;;1.80;;
16510;SDS011;8368;48.772;8.754;2022-08-01T07:35:11;2.20;;;2.10;;
16510;SDS011;8368;48.772;8.754;2022-08-01T07:37:37;2.15;;;2.05;;
16510;SDS011;8368;48.772;8.754;2022-08-01T07:40:02;2.10;;;2.03;;
16510;SDS011;8368;48.772;8.754;2022-08-01T07:42:30;2.40;;;2.30;;
16510;SDS011;8368;48.772;8.754;2022-08-01T07:44:55;2.20;;;2.10;;
16510;SDS011;8368;48.772;8.754;2022-08-01T07:47:24;1.88;;;1.88;;
16510;SDS011;8368;48.772;8.754;2022-08-01T07:49:51;2.30;;;2.20;;
16510;SDS011;8368;48.772;8.754;2022-08-01T07:52:18;2.50;;;2.40;;
16510;SDS011;8368;48.772;8.754;2022-08-01T07:54:43;2.13;;;2.10;;
16510;SDS011;8368;48.772;8.754;2022-08-01T07:57:09;2.45;;;2.25;;
16510;SDS011;8368;48.772;8.754;2022-08-01T07:59:34;2.30;;;2.20;;
16510;SDS011;8368;48.772;8.754;2022-08-01T08:02:00;1.92;;;1.92;;
16510;SDS011;8368;48.772;8.754;2022-08-01T08:04:26;3.10;;;2.90;;
16510;SDS011;8368;48.772;8.754;2022-08-01T08:06:52;3.63;;;3.33;;
16510;SDS011;8368;48.772;8.754;2022-08-01T08:09:18;4.72;;;2.95;;
16510;SDS011;8368;48.772;8.754;2022-08-01T08:11:44;3.95;;;3.47;;
16510;SDS011;8368;48.772;8.754;2022-08-01T08:14:10;3.17;;;3.08;;
16510;SDS011;8368;48.772;8.754;2022-08-01T08:16:36;3.35;;;3.15;;
16510;SDS011;8368;48.772;8.754;2022-08-01T08:19:02;4.13;;;3.92;;
16510;SDS011;8368;48.772;8.754;2022-08-01T08:21:28;3.88;;;3.58;;
16510;SDS011;8368;48.772;8.754;2022-08-01T08:23:55;4.18;;;3.88;;
16510;SDS011;8368;48.772;8.754;2022-08-01T08:26:39;4.30;;;3.90;;
16510;SDS011;8368;48.772;8.754;2022-08-01T08:29:04;4.70;;;4.40;;
16510;SDS011;8368;48.772;8.754;2022-08-01T08:31:30;4.30;;;4.00;;
16510;SDS011;8368;48.772;8.754;2022-08-01T08:33:55;3.55;;;3.33;;
16510;SDS011;8368;48.772;8.754;2022-08-01T08:36:21;3.17;;;2.97;;
16510;SDS011;8368;48.772;8.754;2022-08-01T08:38:46;3.97;;;3.78;;
16510;SDS011;8368;48.772;8.754;2022-08-01T08:41:12;3.38;;;3.28;;
16510;SDS011;8368;48.772;8.754;2022-08-01T08:43:38;3.38;;;3.28;;
16510;SDS011;8368;48.772;8.754;2022-08-01T08:46:04;3.58;;;3.38;;
16510;SDS011;8368;48.772;8.754;2022-08-01T08:48:32;3.45;;;3.28;;
16510;SDS011;8368;48.772;8.754;2022-08-01T08:50:59;3.53;;;3.33;;
16510;SDS011;8368;48.772;8.754;2022-08-01T08:53:26;4.00;;;3.58;;
16510;SDS011;8368;48.772;8.754;2022-08-01T08:55:52;3.88;;;3.58;;
16510;SDS011;8368;48.772;8.754;2022-08-01T08:58:19;3.35;;;3.25;;
16510;SDS011;8368;48.772;8.754;2022-08-01T09:00:46;3.70;;;3.00;;
16510;SDS011;8368;48.772;8.754;2022-08-01T09:03:12;3.00;;;2.90;;
16510;SDS011;8368;48.772;8.754;2022-08-01T09:05:38;3.05;;;2.85;;
16510;SDS011;8368;48.772;8.754;2022-08-01T09:08:07;3.08;;;2.88;;
16510;SDS011;8368;48.772;8.754;2022-08-01T09:10:33;3.65;;;3.45;;
16510;SDS011;8368;48.772;8.754;2022-08-01T09:13:11;3.63;;;3.38;;
16510;SDS011;8368;48.772;8.754;2022-08-01T09:18:05;3.03;;;2.92;;
16510;SDS011;8368;48.772;8.754;2022-08-01T09:20:31;3.53;;;3.33;;
16510;SDS011;8368;48.772;8.754;2022-08-01T09:22:56;3.10;;;3.00;;
16510;SDS011;8368;48.772;8.754;2022-08-01T09:25:22;3.10;;;2.90;;
16510;SDS011;8368;48.772;8.754;2022-08-01T09:27:47;4.25;;;3.10;;
16510;SDS011;8368;48.772;8.754;2022-08-01T09:30:26;3.05;;;2.85;;
16510;SDS011;8368;48.772;8.754;2022-08-01T09:35:32;2.78;;;2.67;;
16510;SDS011;8368;48.772;8.754;2022-08-01T09:38:15;3.40;;;2.90;;
16510;SDS011;8368;48.772;8.754;2022-08-01T09:40:45;2.70;;;2.50;;
16510;SDS011;8368;48.772;8.754;2022-08-01T09:43:16;3.28;;;3.05;;
16510;SDS011;8368;48.772;8.754;2022-08-01T09:45:42;3.03;;;2.83;;
16510;SDS011;8368;48.772;8.754;2022-08-01T09:48:08;2.60;;;2.50;;
16510;SDS011;8368;48.772;8.754;2022-08-01T09:50:46;3.00;;;2.80;;
16510;SDS011;8368;48.772;8.754;2022-08-01T09:53:13;3.05;;;2.95;;
16510;SDS011;8368;48.772;8.754;2022-08-01T09:55:40;3.28;;;3.00;;
16510;SDS011;8368;48.772;8.754;2022-08-01T09:58:06;2.85;;;2.75;;
16510;SDS011;8368;48.772;8.754;2022-08-01T10:00:32;3.38;;;2.97;;
16510;SDS011;8368;48.772;8.754;2022-08-01T10:02:59;3.08;;;2.97;;
16510;SDS011;8368;48.772;8.754;2022-08-01T10:05:43;2.92;;;2.80;;
16510;SDS011;8368;48.772;8.754;2022-08-01T10:08:09;3.35;;;3.08;;
16510;SDS011;8368;48.772;8.754;2022-08-01T10:10:35;2.95;;;2.85;;
16510;SDS011;8368;48.772;8.754;2022-08-01T10:13:01;2.40;;;2.30;;
16510;SDS011;8368;48.772;8.754;2022-08-01T10:15:27;2.28;;;2.17;;
16510;SDS011;8368;48.772;8.754;2022-08-01T10:17:53;2.42;;;2.33;;
16510;SDS011;8368;48.772;8.754;2022-08-01T10:20:23;3.03;;;2.85;;
16510;SDS011;8368;48.772;8.754;2022-08-01T10:22:54;3.00;;;2.90;;
16510;SDS011;8368;48.772;8.754;2022-08-01T10:25:22;3.05;;;2.85;;
16510;SDS011;8368;48.772;8.754;2022-08-01T10:27:49;2.80;;;2.70;;
16510;SDS011;8368;48.772;8.754;2022-08-01T10:30:17;2.88;;;2.65;;
16510;SDS011;8368;48.772;8.754;2022-08-01T10:32:43;2.83;;;2.72;;
16510;SDS011;8368;48.772;8.754;2022-08-01T10:35:11;3.58;;;3.38;;
16510;SDS011;8368;48.772;8.754;2022-08-01T10:37:42;2.50;;;2.40;;
16510;SDS011;8368;48.772;8.754;2022-08-01T10:40:10;2.90;;;2.80;;
16510;SDS011;8368;48.772;8.754;2022-08-01T10:42:42;2.83;;;2.72;;
16510;SDS011;8368;48.772;8.754;2022-08-01T10:45:09;2.58;;;2.47;;
16510;SDS011;8368;48.772;8.754;2022-08-01T10:47:45;4.90;;;2.90;;
16510;SDS011;8368;48.772;8.754;2022-08-01T10:50:23;2.60;;;2.50;;
16510;SDS011;8368;48.772;8.754;2022-08-01T10:53:12;2.85;;;2.75;;
16510;SDS011;8368;48.772;8.754;2022-08-01T11:03:41;2.17;;;2.08;;
16510;SDS011;8368;48.772;8.754;2022-08-01T11:06:15;2.20;;;2.13;;
16510;SDS011;8368;48.772;8.754;2022-08-01T11:08:42;2.40;;;2.30;;
16510;SDS011;8368;48.772;8.754;2022-08-01T11:11:16;2.58;;;2.13;;
16510;SDS011;8368;48.772;8.754;2022-08-01T11:16:26;2.15;;;2.15;;
16510;SDS011;8368;48.772;8.754;2022-08-01T11:18:53;2.60;;;2.50;;
16510;SDS011;8368;48.772;8.754;2022-08-01T11:21:18;2.60;;;2.50;;
16510;SDS011;8368;48.772;8.754;2022-08-01T11:23:49;1.90;;;1.90;;
16510;SDS011;8368;48.772;8.754;2022-08-01T11:26:18;2.40;;;2.30;;
16510;SDS011;8368;48.772;8.754;2022-08-01T11:28:45;2.38;;;2.28;;
16510;SDS011;8368;48.772;8.754;2022-08-01T11:31:31;2.08;;;1.98;;
16510;SDS011;8368;48.772;8.754;2022-08-01T11:33:58;2.30;;;2.28;;
16510;SDS011;8368;48.772;8.754;2022-08-01T11:36:24;2.30;;;2.20;;
16510;SDS011;8368;48.772;8.754;2022-08-01T11:41:25;2.08;;;1.98;;
16510;SDS011;8368;48.772;8.754;2022-08-01T11:43:57;1.83;;;1.83;;
16510;SDS011;8368;48.772;8.754;2022-08-01T11:54:31;2.20;;;2.10;;
16510;SDS011;8368;48.772;8.754;2022-08-01T11:56:58;2.08;;;1.95;;
16510;SDS011;8368;48.772;8.754;2022-08-01T11:59:27;2.10;;;2.00;;
16510;SDS011;8368;48.772;8.754;2022-08-01T12:01:52;2.03;;;1.92;;
16510;SDS011;8368;48.772;8.754;2022-08-01T12:04:18;2.05;;;1.95;;
16510;SDS011;8368;48.772;8.754;2022-08-01T12:06:45;2.08;;;2.00;;
16510;SDS011;8368;48.772;8.754;2022-08-01T12:09:17;2.00;;;2.00;;
16510;SDS011;8368;48.772;8.754;2022-08-01T12:11:44;2.22;;;2.15;;
16510;SDS011;8368;48.772;8.754;2022-08-01T12:14:15;2.70;;;2.50;;
16510;SDS011;8368;48.772;8.754;2022-08-01T12:16:53;3.03;;;2.15;;
16510;SDS011;8368;48.772;8.754;2022-08-01T12:19:22;2.63;;;2.42;;
16510;SDS011;8368;48.772;8.754;2022-08-01T12:24:39;2.50;;;2.30;;
16510;SDS011;8368;48.772;8.754;2022-08-01T12:27:06;2.58;;;2.45;;
16510;SDS011;8368;48.772;8.754;2022-08-01T12:29:36;1.90;;;1.90;;
16510;SDS011;8368;48.772;8.754;2022-08-01T12:32:04;2.55;;;2.55;;
16510;SDS011;8368;48.772;8.754;2022-08-01T12:34:45;2.60;;;2.50;;
16510;SDS011;8368;48.772;8.754;2022-08-01T12:37:11;3.15;;;2.95;;
16510;SDS011;8368;48.772;8.754;2022-08-01T12:39:36;2.47;;;2.28;;
16510;SDS011;8368;48.772;8.754;2022-08-01T12:42:05;5.53;;;2.97;;
16510;SDS011;8368;48.772;8.754;2022-08-01T12:44:32;2.30;;;2.10;;
16510;SDS011;8368;48.772;8.754;2022-08-01T12:46:58;2.38;;;2.28;;
16510;SDS011;8368;48.772;8.754;2022-08-01T12:49:26;3.03;;;2.80;;
16510;SDS011;8368;48.772;8.754;2022-08-01T12:51:52;3.38;;;3.13;;
16510;SDS011;8368;48.772;8.754;2022-08-01T12:54:19;3.75;;;3.03;;
16510;SDS011;8368;48.772;8.754;2022-08-01T12:56:45;3.22;;;2.97;;
16510;SDS011;8368;48.772;8.754;2022-08-01T12:59:23;3.30;;;2.83;;
16510;SDS011;8368;48.772;8.754;2022-08-01T13:01:54;3.00;;;2.80;;
16510;SDS011;8368;48.772;8.754;2022-08-01T13:04:20;2.88;;;2.50;;
16510;SDS011;8368;48.772;8.754;2022-08-01T13:06:47;2.88;;;2.70;;
16510;SDS011;8368;48.772;8.754;2022-08-01T13:09:17;2.50;;;2.40;;
16510;SDS011;8368;48.772;8.754;2022-08-01T13:11:43;3.30;;;3.10;;
16510;SDS011;8368;48.772;8.754;2022-08-01T13:14:09;2.60;;;2.50;;
16510;SDS011;8368;48.772;8.754;2022-08-01T13:16:47;3.03;;;2.83;;
16510;SDS011;8368;48.772;8.754;2022-08-01T13:19:13;2.80;;;2.67;;
16510;SDS011;8368;48.772;8.754;2022-08-01T13:21:38;4.22;;;2.92;;
16510;SDS011;8368;48.772;8.754;2022-08-01T13:24:22;2.80;;;2.60;;
16510;SDS011;8368;48.772;8.754;2022-08-01T13:26:59;2.70;;;2.60;;
16510;SDS011;8368;48.772;8.754;2022-08-01T13:29:37;2.53;;;2.42;;
16510;SDS011;8368;48.772;8.754;2022-08-01T13:32:13;2.58;;;2.40;;
16510;SDS011;8368;48.772;8.754;2022-08-01T13:34:44;2.22;;;2.10;;
16510;SDS011;8368;48.772;8.754;2022-08-01T13:37:09;2.25;;;2.15;;
16510;SDS011;8368;48.772;8.754;2022-08-01T13:39:35;2.13;;;2.13;;
16510;SDS011;8368;48.772;8.754;2022-08-01T13:42:07;2.20;;;2.08;;
16510;SDS011;8368;48.772;8.754;2022-08-01T13:44:33;2.35;;;2.30;;
16510;SDS011;8368;48.772;8.754;2022-08-01T13:46:59;2.70;;;2.35;;
16510;SDS011;8368;48.772;8.754;2022-08-01T13:49:25;2.17;;;2.08;;
16510;SDS011;8368;48.772;8.754;2022-08-01T13:51:50;2.50;;;2.30;;
16510;SDS011;8368;48.772;8.754;2022-08-01T13:54:16;2.03;;;2.03;;
16510;SDS011;8368;48.772;8.754;2022-08-01T13:56:42;2.28;;;2.08;;
16510;SDS011;8368;48.772;8.754;2022-08-01T13:59:08;2.63;;;2.50;;
16510;SDS011;8368;48.772;8.754;2022-08-01T14:01:34;2.13;;;2.13;;
16510;SDS011;8368;48.772;8.754;2022-08-01T14:04:00;2.50;;;2.42;;
16510;SDS011;8368;48.772;8.754;2022-08-01T14:06:27;5.28;;;2.80;;
16510;SDS011;8368;48.772;8.754;2022-08-01T14:08:53;2.33;;;2.22;;
16510;SDS011;8368;48.772;8.754;2022-08-01T14:11:18;2.22;;;2.15;;
16510;SDS011;8368;48.772;8.754;2022-08-01T14:13:44;2.38;;;2.28;;
16510;SDS011;8368;48.772;8.754;2022-08-01T14:16:09;2.47;;;2.38;;
16510;SDS011;8368;48.772;8.754;2022-08-01T14:18:35;3.53;;;2.75;;
16510;SDS011;8368;48.772;8.754;2022-08-01T14:21:01;2.70;;;2.50;;
16510;SDS011;8368;48.772;8.754;2022-08-01T14:23:26;5.05;;;2.40;;
16510;SDS011;8368;48.772;8.754;2022-08-01T14:25:52;2.58;;;2.38;;
16510;SDS011;8368;48.772;8.754;2022-08-01T14:28:17;2.60;;;2.50;;
16510;SDS011;8368;48.772;8.754;2022-08-01T14:30:43;2.30;;;2.10;;
16510;SDS011;8368;48.772;8.754;2022-08-01T14:33:09;2.33;;;2.13;;
16510;SDS011;8368;48.772;8.754;2022-08-01T14:35:35;2.10;;;2.00;;
16510;SDS011;8368;48.772;8.754;2022-08-01T14:38:01;2.10;;;1.90;;
16510;SDS011;8368;48.772;8.754;2022-08-01T14:40:27;2.38;;;2.28;;
16510;SDS011;8368;48.772;8.754;2022-08-01T14:42:52;2.22;;;2.13;;
16510;SDS011;8368;48.772;8.754;2022-08-01T14:45:18;2.30;;;2.20;;
16510;SDS011;8368;48.772;8.754;2022-08-01T14:47:44;2.40;;;2.03;;
16510;SDS011;8368;48.772;8.754;2022-08-01T14:50:11;2.35;;;2.10;;
16510;SDS011;8368;48.772;8.754;2022-08-01T14:52:38;2.33;;;2.20;;
16510;SDS011;8368;48.772;8.754;2022-08-01T14:55:05;2.15;;;2.05;;
16510;SDS011;8368;48.772;8.754;2022-08-01T14:57:32;2.20;;;2.10;;
16510;SDS011;8368;48.772;8.754;2022-08-01T14:59:58;2.15;;;2.05;;
16510;SDS011;8368;48.772;8.754;2022-08-01T15:02:24;2.50;;;2.40;;
16510;SDS011;8368;48.772;8.754;2022-08-01T15:04:50;2.05;;;1.88;;
16510;SDS011;8368;48.772;8.754;2022-08-01T15:07:15;2.30;;;2.20;;
16510;SDS011;8368;48.772;8.754;2022-08-01T15:09:42;1.77;;;1.77;;
16510;SDS011;8368;48.772;8.754;2022-08-01T15:12:08;2.15;;;1.90;;
16510;SDS011;8368;48.772;8.754;2022-08-01T15:14:34;2.40;;;2.03;;
16510;SDS011;8368;48.772;8.754;2022-08-01T15:17:19;2.15;;;2.03;;
16510;SDS011;8368;48.772;8.754;2022-08-01T15:19:46;2.00;;;1.90;;
16510;SDS011;8368;48.772;8.754;2022-08-01T15:22:14;2.05;;;1.95;;
16510;SDS011;8368;48.772;8.754;2022-08-01T15:24:39;2.47;;;2.00;;
16510;SDS011;8368;48.772;8.754;2022-08-01T15:27:05;1.85;;;1.70;;
16510;SDS011;8368;48.772;8.754;2022-08-01T15:29:31;1.77;;;1.77;;
16510;SDS011;8368;48.772;8.754;2022-08-01T15:31:58;1.92;;;1.80;;
16510;SDS011;8368;48.772;8.754;2022-08-01T15:34:23;1.90;;;1.80;;
16510;SDS011;8368;48.772;8.754;2022-08-01T15:36:50;1.80;;;1.70;;
16510;SDS011;8368;48.772;8.754;2022-08-01T15:39:16;1.70;;;1.70;;
16510;SDS011;8368;48.772;8.754;2022-08-01T15:41:42;1.80;;;1.70;;
16510;SDS011;8368;48.772;8.754;2022-08-01T15:44:07;1.77;;;1.70;;